createdAt,value
2016-11-13T00:00:37.940Z,1.52
2016-11-13T00:01:54.038Z,1.58
2016-11-13T00:03:10.425Z,1.52
2016-11-13T00:04:25.914Z,1.58
2016-11-13T00:05:41.264Z,1.61
2016-11-13T00:06:57.396Z,1.6
2016-11-13T00:08:12.298Z,1.71
2016-11-13T00:09:26.547Z,1.64
2016-11-13T00:10:41.367Z,1.6
2016-11-13T00:11:54.399Z,1.65
2016-11-13T00:13:10.085Z,1.69
2016-11-13T00:14:23.824Z,1.75
2016-11-13T00:15:36.340Z,1.68
2016-11-13T00:16:49.703Z,1.68
2016-11-13T00:18:05.872Z,1.6
2016-11-13T00:19:17.921Z,1.65
2016-11-13T00:20:32.855Z,1.68
2016-11-13T00:21:46.032Z,1.61
2016-11-13T00:23:01.034Z,1.62
2016-11-13T00:24:17.253Z,1.58
2016-11-13T00:25:30.235Z,1.64
2016-11-13T00:26:44.862Z,1.61
2016-11-13T00:27:59.930Z,1.65
2016-11-13T00:29:15.958Z,1.57
2016-11-13T00:30:30.546Z,1.64
2016-11-13T00:31:43.686Z,1.65
2016-11-13T00:32:56.980Z,1.58
2016-11-13T00:34:11.559Z,1.62
2016-11-13T00:35:26.405Z,1.58
2016-11-13T00:36:41.026Z,1.57
2016-11-13T00:37:55.969Z,1.71
2016-11-13T00:39:10.583Z,1.61
2016-11-13T00:40:24.937Z,1.65
2016-11-13T00:41:41.284Z,1.72
2016-11-13T00:42:56.863Z,1.58
2016-11-13T00:44:11.059Z,1.68
2016-11-13T00:45:24.500Z,1.6
2016-11-13T00:46:38.507Z,1.52
2016-11-13T00:47:52.936Z,1.6
2016-11-13T00:49:07.696Z,1.55
2016-11-13T00:50:24.082Z,1.54
2016-11-13T00:51:40.293Z,1.5
2016-11-13T00:52:54.835Z,1.55
2016-11-13T00:54:06.357Z,1.46
2016-11-13T00:55:20.420Z,1.42
2016-11-13T00:56:34.851Z,1.5
2016-11-13T00:57:47.607Z,1.46
2016-11-13T00:58:59.122Z,1.46
2016-11-13T01:00:14.869Z,1.43
2016-11-13T01:01:27.479Z,1.43
2016-11-13T01:02:44.041Z,1.47
2016-11-13T01:03:58.434Z,1.39
2016-11-13T01:05:11.744Z,1.42
2016-11-13T01:06:26.199Z,1.37
2016-11-13T01:07:42.438Z,1.44
2016-11-13T01:08:56.852Z,1.46
2016-11-13T01:10:12.530Z,1.42
2016-11-13T01:11:26.372Z,1.46
2016-11-13T01:12:38.968Z,1.44
2016-11-13T01:13:54.689Z,1.4
2016-11-13T01:15:10.812Z,1.42
2016-11-13T01:16:24.092Z,1.47
2016-11-13T01:17:38.993Z,1.4
2016-11-13T01:18:53.264Z,1.4
2016-11-13T01:20:07.981Z,1.4
2016-11-13T01:21:21.194Z,1.47
2016-11-13T01:22:37.971Z,1.44
2016-11-13T01:23:54.565Z,1.5
2016-11-13T01:25:08.801Z,1.43
2016-11-13T01:26:23.160Z,1.46
2016-11-13T01:27:37.991Z,1.39
2016-11-13T01:28:54.032Z,1.46
2016-11-13T01:30:07.173Z,1.4
2016-11-13T01:31:23.202Z,1.39
2016-11-13T01:32:39.220Z,1.37
2016-11-13T01:33:54.476Z,1.47
2016-11-13T01:35:10.580Z,1.47
2016-11-13T01:36:23.481Z,1.51
2016-11-13T01:37:40.105Z,1.4
2016-11-13T01:38:54.914Z,1.46
2016-11-13T01:40:09.325Z,1.47
2016-11-13T01:41:25.372Z,1.51
2016-11-13T01:42:39.963Z,1.44
2016-11-13T01:43:54.058Z,1.51
2016-11-13T01:45:10.602Z,1.58
2016-11-13T01:46:23.560Z,1.61
2016-11-13T01:47:36.679Z,1.61
2016-11-13T01:48:50.087Z,1.58
2016-11-13T01:50:04.662Z,1.6
2016-11-13T01:51:19.386Z,1.62
2016-11-13T01:52:33.806Z,1.61
2016-11-13T01:53:47.887Z,1.55
2016-11-13T01:55:00.747Z,1.55
2016-11-13T01:56:16.623Z,1.55
2016-11-13T01:57:31.546Z,1.58
2016-11-13T01:58:45.739Z,1.65
2016-11-13T01:59:57.307Z,1.61
2016-11-13T02:01:10.403Z,1.61
2016-11-13T02:02:26.823Z,1.57
2016-11-13T02:03:40.912Z,1.65
2016-11-13T02:04:52.637Z,1.65
2016-11-13T02:06:08.888Z,1.68
2016-11-13T02:07:21.952Z,1.6
2016-11-13T02:08:37.801Z,1.62
2016-11-13T02:09:52.934Z,1.64
2016-11-13T02:11:07.337Z,1.65
2016-11-13T02:12:23.012Z,1.62
2016-11-13T02:13:38.219Z,1.75
2016-11-13T02:14:54.208Z,1.72
2016-11-13T02:16:07.180Z,1.61
2016-11-13T02:17:19.734Z,1.62
2016-11-13T02:18:34.642Z,1.71
2016-11-13T02:19:50.724Z,1.71
2016-11-13T02:21:04.777Z,1.58
2016-11-13T02:22:21.045Z,1.68
2016-11-13T02:23:35.005Z,1.73
2016-11-13T02:24:50.290Z,1.71
2016-11-13T02:26:05.202Z,1.72
2016-11-13T02:27:20.871Z,1.69
2016-11-13T02:28:35.269Z,1.75
2016-11-13T02:29:49.659Z,1.73
2016-11-13T02:31:01.351Z,1.73
2016-11-13T02:32:16.127Z,1.72
2016-11-13T02:33:29.461Z,1.75
2016-11-13T02:34:45.293Z,1.69
2016-11-13T02:35:58.320Z,1.76
2016-11-13T02:37:11.531Z,1.73
2016-11-13T02:38:27.899Z,1.71
2016-11-13T02:39:42.781Z,1.72
2016-11-13T02:40:58.647Z,1.72
2016-11-13T02:42:14.652Z,1.75
2016-11-13T02:43:29.635Z,1.78
2016-11-13T02:44:42.816Z,1.72
2016-11-13T02:45:57.190Z,1.78
2016-11-13T02:47:09.994Z,1.68
2016-11-13T02:48:23.124Z,1.64
2016-11-13T02:49:36.631Z,1.65
2016-11-13T02:50:52.498Z,1.69
2016-11-13T02:52:07.079Z,1.72
2016-11-13T02:53:20.077Z,1.73
2016-11-13T02:54:36.099Z,1.69
2016-11-13T02:55:51.770Z,1.71
2016-11-13T02:57:08.493Z,1.73
2016-11-13T02:58:24.893Z,1.73
2016-11-13T02:59:38.064Z,1.73
2016-11-13T03:00:53.792Z,1.78
2016-11-13T03:02:08.013Z,1.75
2016-11-13T03:03:22.408Z,1.76
2016-11-13T03:04:38.469Z,1.73
2016-11-13T03:05:53.326Z,1.78
2016-11-13T03:07:09.208Z,1.72
2016-11-13T03:08:23.246Z,1.72
2016-11-13T03:09:39.823Z,1.64
2016-11-13T03:10:54.048Z,1.76
2016-11-13T03:12:06.967Z,1.62
2016-11-13T03:13:22.637Z,1.73
2016-11-13T03:14:36.812Z,1.65
2016-11-13T03:15:52.490Z,1.71
2016-11-13T03:17:08.043Z,1.79
2016-11-13T03:18:22.282Z,1.64
2016-11-13T03:19:33.846Z,1.71
2016-11-13T03:20:48.509Z,1.64
2016-11-13T03:22:04.367Z,1.71
2016-11-13T03:23:20.029Z,1.8
2016-11-13T03:24:35.743Z,1.73
2016-11-13T03:25:52.148Z,1.78
2016-11-13T03:27:06.364Z,1.8
2016-11-13T03:28:22.103Z,1.79
2016-11-13T03:29:36.522Z,1.72
2016-11-13T03:30:52.908Z,1.83
2016-11-13T03:32:07.324Z,1.8
2016-11-13T03:33:18.827Z,1.78
2016-11-13T03:34:30.727Z,1.8
2016-11-13T03:35:43.944Z,1.78
2016-11-13T03:36:59.961Z,1.69
2016-11-13T03:38:14.362Z,1.78
2016-11-13T03:39:30.381Z,1.65
2016-11-13T03:40:46.027Z,1.82
2016-11-13T03:41:58.857Z,1.78
2016-11-13T03:43:13.118Z,1.76
2016-11-13T03:44:27.425Z,1.79
2016-11-13T03:45:40.340Z,1.8
2016-11-13T03:46:55.626Z,1.8
2016-11-13T03:48:10.727Z,1.8
2016-11-13T03:49:24.035Z,1.8
2016-11-13T03:50:38.595Z,1.8
2016-11-13T03:51:53.620Z,1.85
2016-11-13T03:53:06.323Z,1.79
2016-11-13T03:54:22.397Z,1.82
2016-11-13T03:55:36.754Z,1.8
2016-11-13T03:56:53.330Z,1.83
2016-11-13T03:58:09.940Z,1.76
2016-11-13T03:59:24.597Z,1.83
2016-11-13T04:00:40.253Z,1.79
2016-11-13T04:01:54.528Z,1.9
2016-11-13T04:03:09.401Z,1.89
2016-11-13T04:04:23.270Z,1.89
2016-11-13T04:05:37.985Z,1.89
2016-11-13T04:06:50.729Z,1.85
2016-11-13T04:08:05.534Z,1.91
2016-11-13T04:09:19.716Z,1.89
2016-11-13T04:10:32.648Z,1.89
2016-11-13T04:11:47.943Z,1.82
2016-11-13T04:13:02.476Z,1.83
2016-11-13T04:14:15.253Z,1.89
2016-11-13T04:15:29.912Z,1.89
2016-11-13T04:16:43.771Z,1.87
2016-11-13T04:17:58.160Z,1.87
2016-11-13T04:19:12.370Z,1.83
2016-11-13T04:20:26.847Z,1.89
2016-11-13T04:21:41.426Z,1.89
2016-11-13T04:22:56.095Z,1.87
2016-11-13T04:24:11.600Z,1.79
2016-11-13T04:25:22.918Z,1.89
2016-11-13T04:26:38.694Z,1.64
2016-11-13T04:27:54.610Z,1.71
2016-11-13T04:29:09.431Z,1.71
2016-11-13T04:30:24.896Z,1.72
2016-11-13T04:31:38.930Z,1.68
2016-11-13T04:32:51.694Z,1.64
2016-11-13T04:34:08.070Z,1.69
2016-11-13T04:35:22.333Z,1.75
2016-11-13T04:36:35.224Z,1.71
2016-11-13T04:37:51.712Z,1.71
2016-11-13T04:39:03.733Z,1.76
2016-11-13T04:40:19.946Z,1.68
2016-11-13T04:41:35.883Z,1.75
2016-11-13T04:42:48.529Z,1.62
2016-11-13T04:44:02.775Z,1.71
2016-11-13T04:45:18.554Z,1.71
2016-11-13T04:46:34.403Z,1.73
2016-11-13T04:47:50.111Z,1.61
2016-11-13T04:49:05.989Z,1.65
2016-11-13T04:50:22.383Z,1.65
2016-11-13T04:51:36.114Z,1.58
2016-11-13T04:52:50.874Z,1.6
2016-11-13T04:54:05.103Z,1.68
2016-11-13T04:55:19.362Z,1.68
2016-11-13T04:56:32.092Z,1.68
2016-11-13T04:57:46.581Z,1.62
2016-11-13T04:59:00.858Z,1.72
2016-11-13T05:00:13.977Z,1.61
2016-11-13T05:01:26.939Z,1.61
2016-11-13T05:02:40.154Z,1.65
2016-11-13T05:03:54.621Z,1.71
2016-11-13T05:05:09.911Z,1.65
2016-11-13T05:06:24.505Z,1.69
2016-11-13T05:07:40.300Z,1.62
2016-11-13T05:08:55.076Z,1.68
2016-11-13T05:10:12.194Z,1.71
2016-11-13T05:11:27.857Z,1.57
2016-11-13T05:12:43.503Z,1.64
2016-11-13T05:14:00.058Z,1.6
2016-11-13T05:15:12.942Z,1.68
2016-11-13T05:16:27.158Z,1.6
2016-11-13T05:17:43.100Z,1.61
2016-11-13T05:18:57.887Z,1.62
2016-11-13T05:20:10.656Z,1.65
2016-11-13T05:21:26.694Z,1.64
2016-11-13T05:22:42.191Z,1.55
2016-11-13T05:23:56.220Z,1.62
2016-11-13T05:25:10.263Z,1.52
2016-11-13T05:26:23.757Z,1.54
2016-11-13T05:27:38.350Z,1.61
2016-11-13T05:28:53.267Z,1.64
2016-11-13T05:30:09.286Z,1.58
2016-11-13T05:31:23.183Z,1.55
2016-11-13T05:32:37.354Z,1.43
2016-11-13T05:33:51.173Z,1.5
2016-11-13T05:35:04.425Z,1.5
2016-11-13T05:36:19.196Z,1.51
2016-11-13T05:37:32.185Z,1.54
2016-11-13T05:38:46.193Z,1.52
2016-11-13T05:40:00.552Z,1.46
2016-11-13T05:41:17.136Z,1.47
2016-11-13T05:42:31.575Z,1.46
2016-11-13T05:43:46.586Z,1.43
2016-11-13T05:45:02.597Z,1.44
2016-11-13T05:46:17.166Z,1.4
2016-11-13T05:47:32.849Z,1.43
2016-11-13T05:48:47.487Z,1.47
2016-11-13T05:50:03.361Z,1.44
2016-11-13T05:51:18.078Z,1.44
2016-11-13T05:52:32.532Z,1.55
2016-11-13T05:53:46.377Z,1.44
2016-11-13T05:55:01.303Z,1.5
2016-11-13T05:56:13.965Z,1.54
2016-11-13T05:57:27.072Z,1.5
2016-11-13T05:58:41.127Z,1.4
2016-11-13T05:59:56.874Z,1.42
2016-11-13T06:01:08.470Z,1.4
2016-11-13T06:02:21.880Z,1.44
2016-11-13T06:03:34.832Z,1.4
2016-11-13T06:04:49.541Z,1.46
2016-11-13T06:06:04.468Z,1.43
2016-11-13T06:07:18.707Z,1.44
2016-11-13T06:08:33.548Z,1.46
2016-11-13T06:09:46.395Z,1.46
2016-11-13T06:10:59.707Z,1.44
2016-11-13T06:12:11.642Z,1.46
2016-11-13T06:13:23.167Z,1.44
2016-11-13T06:14:38.622Z,1.44
2016-11-13T06:15:54.222Z,1.44
2016-11-13T06:17:07.403Z,1.43
2016-11-13T06:18:23.578Z,1.52
2016-11-13T06:19:38.339Z,1.51
2016-11-13T06:20:51.086Z,1.44
2016-11-13T06:22:07.677Z,1.47
2016-11-13T06:23:19.382Z,1.44
2016-11-13T06:24:32.291Z,1.47
2016-11-13T06:25:45.593Z,1.44
2016-11-13T06:27:00.431Z,1.43
2016-11-13T06:28:16.507Z,1.47
2016-11-13T06:29:30.042Z,1.47
2016-11-13T06:30:44.136Z,1.51
2016-11-13T06:31:57.511Z,1.55
2016-11-13T06:33:10.752Z,1.44
2016-11-13T06:34:23.626Z,1.44
2016-11-13T06:35:36.407Z,1.5
2016-11-13T06:36:49.503Z,1.47
2016-11-13T06:38:04.502Z,1.46
2016-11-13T06:39:19.990Z,1.54
2016-11-13T06:40:34.726Z,1.46
2016-11-13T06:41:50.746Z,1.43
2016-11-13T06:43:04.989Z,1.52
2016-11-13T06:44:17.786Z,1.46
2016-11-13T06:45:33.440Z,1.44
2016-11-13T06:46:47.884Z,1.47
2016-11-13T06:48:01.408Z,1.47
2016-11-13T06:49:16.707Z,1.46
2016-11-13T06:50:31.868Z,1.5
2016-11-13T06:51:46.514Z,1.46
2016-11-13T06:53:00.514Z,1.5
2016-11-13T06:54:16.561Z,1.52
2016-11-13T06:55:29.491Z,1.58
2016-11-13T06:56:42.456Z,1.51
2016-11-13T06:57:58.296Z,1.55
2016-11-13T06:59:09.776Z,1.54
2016-11-13T07:00:23.992Z,1.55
2016-11-13T07:01:39.900Z,1.62
2016-11-13T07:02:54.315Z,1.52
2016-11-13T07:04:10.022Z,1.6
2016-11-13T07:05:24.272Z,1.62
2016-11-13T07:06:37.542Z,1.58
2016-11-13T07:07:50.823Z,1.58
2016-11-13T07:09:02.463Z,1.73
2016-11-13T07:10:18.460Z,1.69
2016-11-13T07:11:32.627Z,1.61
2016-11-13T07:12:45.736Z,1.64
2016-11-13T07:14:01.924Z,1.68
2016-11-13T07:15:17.668Z,1.65
2016-11-13T07:16:34.470Z,1.78
2016-11-13T07:17:47.320Z,1.75
2016-11-13T07:19:03.192Z,1.68
2016-11-13T07:20:17.187Z,1.69
2016-11-13T07:21:31.830Z,1.68
2016-11-13T07:22:47.516Z,1.72
2016-11-13T07:24:01.727Z,1.73
2016-11-13T07:25:13.167Z,1.75
2016-11-13T07:26:26.032Z,1.71
2016-11-13T07:27:40.798Z,1.68
2016-11-13T07:28:55.312Z,1.73
2016-11-13T07:30:11.121Z,1.72
2016-11-13T07:31:27.387Z,1.79
2016-11-13T07:32:43.602Z,1.85
2016-11-13T07:33:57.852Z,1.83
2016-11-13T07:35:13.501Z,1.85
2016-11-13T07:36:27.688Z,1.91
2016-11-13T07:37:39.364Z,2.04
2016-11-13T07:38:52.260Z,1.99
2016-11-13T07:40:06.700Z,2.04
2016-11-13T07:41:19.663Z,2.04
2016-11-13T07:42:29.975Z,2.08
2016-11-13T07:43:44.551Z,2.15
2016-11-13T07:44:57.591Z,2.17
2016-11-13T07:46:13.982Z,2.27
2016-11-13T07:47:28.707Z,2.34
2016-11-13T07:48:43.339Z,2.3
2016-11-13T07:49:56.515Z,2.28
2016-11-13T07:51:12.813Z,2.4
2016-11-13T07:52:28.687Z,2.34
2016-11-13T07:53:44.682Z,2.38
2016-11-13T07:55:00.733Z,2.38
2016-11-13T07:56:16.619Z,2.45
2016-11-13T07:57:32.807Z,2.45
2016-11-13T07:58:48.842Z,2.49
2016-11-13T08:00:02.830Z,2.55
2016-11-13T08:01:19.380Z,2.52
2016-11-13T08:02:35.910Z,2.55
2016-11-13T08:03:49.042Z,2.49
2016-11-13T08:05:03.768Z,2.46
2016-11-13T08:06:19.826Z,2.53
2016-11-13T08:07:32.773Z,2.51
2016-11-13T08:08:45.717Z,2.53
2016-11-13T08:10:00.758Z,2.64
2016-11-13T08:11:15.604Z,2.61
2016-11-13T08:12:31.624Z,2.66
2016-11-13T08:13:47.896Z,2.64
2016-11-13T08:14:59.724Z,2.73
2016-11-13T08:16:14.576Z,2.73
2016-11-13T08:17:30.608Z,2.82
2016-11-13T08:18:46.871Z,2.84
2016-11-13T08:20:01.644Z,2.85
2016-11-13T08:21:13.105Z,2.88
2016-11-13T08:22:28.621Z,2.87
2016-11-13T08:23:40.469Z,2.92
2016-11-13T08:24:55.016Z,2.87
2016-11-13T08:26:07.937Z,2.85
2016-11-13T08:27:22.522Z,2.91
2016-11-13T08:28:38.849Z,2.92
2016-11-13T08:29:55.635Z,2.89
2016-11-13T08:31:09.894Z,2.91
2016-11-13T08:32:25.553Z,2.95
2016-11-13T08:33:39.871Z,2.95
2016-11-13T08:34:55.749Z,3.03
2016-11-13T08:36:10.042Z,3.06
2016-11-13T08:37:25.998Z,3
2016-11-13T08:38:42.625Z,3.03
2016-11-13T08:39:58.640Z,2.91
2016-11-13T08:41:12.695Z,3.06
2016-11-13T08:42:28.532Z,3.09
2016-11-13T08:43:43.743Z,3.09
2016-11-13T08:44:58.176Z,3.12
2016-11-13T08:46:14.034Z,3.2
2016-11-13T08:47:28.954Z,3.24
2016-11-13T08:48:44.887Z,3.31
2016-11-13T08:50:00.973Z,3.28
2016-11-13T08:51:14.177Z,3.28
2016-11-13T08:52:29.471Z,3.3
2016-11-13T08:53:44.442Z,3.39
2016-11-13T08:54:59.068Z,3.5
2016-11-13T08:56:12.140Z,3.5
2016-11-13T08:57:26.153Z,3.52
2016-11-13T08:58:42.682Z,3.58
2016-11-13T08:59:58.785Z,3.6
2016-11-13T09:01:12.128Z,3.57
2016-11-13T09:02:26.539Z,3.61
2016-11-13T09:03:40.766Z,3.5
2016-11-13T09:04:53.857Z,3.57
2016-11-13T09:06:08.190Z,3.52
2016-11-13T09:07:23.670Z,3.62
2016-11-13T09:08:39.129Z,3.71
2016-11-13T09:09:53.443Z,3.67
2016-11-13T09:11:09.136Z,3.68
2016-11-13T09:12:22.023Z,3.72
2016-11-13T09:13:36.262Z,3.7
2016-11-13T09:14:50.506Z,3.68
2016-11-13T09:16:06.729Z,3.65
2016-11-13T09:17:20.094Z,3.71
2016-11-13T09:18:36.213Z,3.71
2016-11-13T09:19:52.068Z,3.68
2016-11-13T09:21:04.851Z,3.78
2016-11-13T09:22:20.661Z,3.76
2016-11-13T09:23:35.593Z,3.76
2016-11-13T09:24:51.240Z,3.65
2016-11-13T09:26:07.482Z,3.71
2016-11-13T09:27:20.439Z,3.79
2016-11-13T09:28:37.027Z,3.8
2016-11-13T09:29:52.866Z,3.92
2016-11-13T09:31:05.743Z,3.94
2016-11-13T09:32:20.337Z,3.9
2016-11-13T09:33:34.875Z,4
2016-11-13T09:34:49.824Z,3.97
2016-11-13T09:36:05.882Z,4.01
2016-11-13T09:37:19.160Z,4.08
2016-11-13T09:38:31.962Z,4.15
2016-11-13T09:39:47.972Z,4.15
2016-11-13T09:41:02.154Z,4.26
2016-11-13T09:42:16.947Z,4.33
2016-11-13T09:43:31.929Z,4.43
2016-11-13T09:44:46.697Z,4.59
2016-11-13T09:46:02.596Z,4.72
2016-11-13T09:47:18.889Z,4.86
2016-11-13T09:48:35.048Z,4.72
2016-11-13T09:49:48.730Z,4.64
2016-11-13T09:51:03.835Z,4.65
2016-11-13T09:52:17.002Z,4.57
2016-11-13T09:53:32.340Z,4.72
2016-11-13T09:54:45.475Z,4.61
2016-11-13T09:55:58.746Z,4.52
2016-11-13T09:57:14.912Z,4.61
2016-11-13T09:58:28.164Z,4.67
2016-11-13T09:59:42.783Z,4.72
2016-11-13T10:00:57.005Z,4.83
2016-11-13T10:02:11.482Z,4.65
2016-11-13T10:03:24.285Z,4.61
2016-11-13T10:04:40.033Z,4.65
2016-11-13T10:05:55.867Z,4.76
2016-11-13T10:07:11.624Z,4.88
2016-11-13T10:08:26.639Z,4.98
2016-11-13T10:09:42.521Z,4.92
2016-11-13T10:10:58.253Z,4.89
2016-11-13T10:12:14.079Z,4.92
2016-11-13T10:13:29.786Z,4.88
2016-11-13T10:14:44.011Z,4.88
2016-11-13T10:16:00.161Z,4.73
2016-11-13T10:17:14.725Z,4.7
2016-11-13T10:18:29.121Z,4.65
2016-11-13T10:19:43.603Z,4.65
2016-11-13T10:20:59.801Z,4.58
2016-11-13T10:22:14.616Z,4.58
2016-11-13T10:23:31.546Z,4.58
2016-11-13T10:24:47.776Z,4.52
2016-11-13T10:26:03.642Z,4.54
2016-11-13T10:27:18.374Z,4.62
2016-11-13T10:28:33.672Z,4.64
2016-11-13T10:29:50.112Z,4.7
2016-11-13T10:31:03.421Z,4.86
2016-11-13T10:32:18.911Z,5.01
2016-11-13T10:33:32.780Z,5.05
2016-11-13T10:34:45.958Z,5.1
2016-11-13T10:35:58.759Z,5.19
2016-11-13T10:37:14.408Z,5.2
2016-11-13T10:38:30.213Z,5.27
2016-11-13T10:39:44.017Z,5.16
2016-11-13T10:41:00.041Z,5.17
2016-11-13T10:42:11.481Z,5.19
2016-11-13T10:43:27.788Z,5.27
2016-11-13T10:44:40.968Z,5.14
2016-11-13T10:45:56.470Z,5.12
2016-11-13T10:47:12.141Z,5.17
2016-11-13T10:48:27.053Z,5.1
2016-11-13T10:49:40.636Z,5.14
2016-11-13T10:50:56.345Z,5.2
2016-11-13T10:52:11.311Z,5.23
2016-11-13T10:53:24.383Z,5.23
2016-11-13T10:54:40.967Z,5.41
2016-11-13T10:55:55.394Z,5.38
2016-11-13T10:57:11.839Z,5.34
2016-11-13T10:58:26.805Z,5.25
2016-11-13T10:59:41.543Z,5.1
2016-11-13T11:00:56.516Z,5.16
2016-11-13T11:02:09.544Z,5.2
2016-11-13T11:03:23.762Z,5.3
2016-11-13T11:04:35.725Z,5.27
2016-11-13T11:05:51.612Z,5.3
2016-11-13T11:07:05.168Z,5.4
2016-11-13T11:08:18.331Z,5.48
2016-11-13T11:09:30.124Z,5.52
2016-11-13T11:10:44.866Z,5.74
2016-11-13T11:12:01.274Z,5.77
2016-11-13T11:13:17.664Z,5.78
2016-11-13T11:14:30.586Z,5.82
2016-11-13T11:15:46.611Z,5.82
2016-11-13T11:17:01.755Z,5.77
2016-11-13T11:18:17.244Z,5.77
2016-11-13T11:19:31.262Z,5.81
2016-11-13T11:20:46.945Z,5.81
2016-11-13T11:22:03.491Z,5.67
2016-11-13T11:23:18.447Z,5.67
2016-11-13T11:24:34.464Z,5.59
2016-11-13T11:25:49.959Z,5.64
2016-11-13T11:27:05.841Z,5.66
2016-11-13T11:28:20.375Z,5.6
2016-11-13T11:29:34.206Z,5.64
2016-11-13T11:30:49.944Z,5.7
2016-11-13T11:32:06.371Z,5.71
2016-11-13T11:33:22.603Z,5.73
2016-11-13T11:34:35.980Z,5.68
2016-11-13T11:35:51.855Z,5.68
2016-11-13T11:37:07.567Z,5.68
2016-11-13T11:38:21.593Z,5.57
2016-11-13T11:39:36.037Z,5.63
2016-11-13T11:40:52.781Z,5.71
2016-11-13T11:42:08.076Z,5.78
2016-11-13T11:43:24.634Z,5.91
2016-11-13T11:44:39.077Z,6.04
2016-11-13T11:45:54.066Z,5.98
2016-11-13T11:47:09.553Z,6.09
2016-11-13T11:48:25.725Z,6.03
2016-11-13T11:49:37.030Z,6.19
2016-11-13T11:50:52.457Z,6.11
2016-11-13T11:52:07.108Z,6.09
2016-11-13T11:53:21.166Z,6.1
2016-11-13T11:54:35.597Z,6.14
2016-11-13T11:55:51.288Z,6.28
2016-11-13T11:57:04.073Z,6.11
2016-11-13T11:58:19.534Z,6.22
2016-11-13T11:59:34.851Z,6.11
2016-11-13T12:00:50.763Z,6.3
2016-11-13T12:02:05.359Z,6.32
2016-11-13T12:03:17.337Z,6.33
2016-11-13T12:04:33.115Z,6.35
2016-11-13T12:05:48.995Z,6.29
2016-11-13T12:07:01.654Z,6.22
2016-11-13T12:08:16.504Z,6.13
2016-11-13T12:09:30.831Z,6.1
2016-11-13T12:10:45.983Z,6.25
2016-11-13T12:12:00.372Z,6.28
2016-11-13T12:13:15.850Z,6.4
2016-11-13T12:14:30.112Z,6.18
2016-11-13T12:15:44.208Z,6.01
2016-11-13T12:17:00.545Z,5.96
2016-11-13T12:18:14.016Z,5.98
2016-11-13T12:19:25.547Z,6.01
2016-11-13T12:20:41.238Z,6.03
2016-11-13T12:21:57.122Z,5.96
2016-11-13T12:23:10.082Z,6.06
2016-11-13T12:24:24.420Z,6.06
2016-11-13T12:25:38.623Z,6.01
2016-11-13T12:26:54.992Z,5.92
2016-11-13T12:28:08.360Z,5.89
2016-11-13T12:29:23.383Z,5.95
2016-11-13T12:30:38.002Z,5.86
2016-11-13T12:31:53.353Z,5.81
2016-11-13T12:33:07.864Z,5.78
2016-11-13T12:34:22.521Z,5.89
2016-11-13T12:35:38.246Z,5.75
2016-11-13T12:36:53.082Z,5.85
2016-11-13T12:38:09.378Z,5.73
2016-11-13T12:39:24.072Z,5.74
2016-11-13T12:40:40.114Z,5.78
2016-11-13T12:41:51.758Z,5.88
2016-11-13T12:43:08.539Z,5.92
2016-11-13T12:44:24.583Z,6
2016-11-13T12:45:39.158Z,6.06
2016-11-13T12:46:54.993Z,6.14
2016-11-13T12:48:09.899Z,6.25
2016-11-13T12:49:22.498Z,6.29
2016-11-13T12:50:35.344Z,6.26
2016-11-13T12:51:49.422Z,6.3
2016-11-13T12:53:05.095Z,6.3
2016-11-13T12:54:19.776Z,6.13
2016-11-13T12:55:34.049Z,6.18
2016-11-13T12:56:48.126Z,6.22
2016-11-13T12:58:04.603Z,6.1
2016-11-13T12:59:18.996Z,6.21
2016-11-13T13:00:31.570Z,6.13
2016-11-13T13:01:46.241Z,6.22
2016-11-13T13:02:59.066Z,6.18
2016-11-13T13:04:15.505Z,6.16
2016-11-13T13:05:30.324Z,6.14
2016-11-13T13:06:44.325Z,6.18
2016-11-13T13:08:00.544Z,6.14
2016-11-13T13:09:15.123Z,6.22
2016-11-13T13:10:29.868Z,6.1
2016-11-13T13:11:45.941Z,6.09
2016-11-13T13:13:01.631Z,6.19
2016-11-13T13:14:16.176Z,6.19
2016-11-13T13:15:32.273Z,6.28
2016-11-13T13:16:45.137Z,6.25
2016-11-13T13:17:59.697Z,6.35
2016-11-13T13:19:15.363Z,6.36
2016-11-13T13:20:31.573Z,6.46
2016-11-13T13:21:47.618Z,6.28
2016-11-13T13:23:03.888Z,6.29
2016-11-13T13:24:20.175Z,6.19
2016-11-13T13:25:35.482Z,6.19
2016-11-13T13:26:49.934Z,6.19
2016-11-13T13:28:06.016Z,6.13
2016-11-13T13:29:22.191Z,6.22
2016-11-13T13:30:36.984Z,6.21
2016-11-13T13:31:51.593Z,6.06
2016-11-13T13:33:07.699Z,6.09
2016-11-13T13:34:22.975Z,6.04
2016-11-13T13:35:37.405Z,6.09
2016-11-13T13:36:53.432Z,6.06
2016-11-13T13:38:07.831Z,5.96
2016-11-13T13:39:22.945Z,6.03
2016-11-13T13:40:36.771Z,5.96
2016-11-13T13:41:52.630Z,5.89
2016-11-13T13:43:07.716Z,5.92
2016-11-13T13:44:23.582Z,5.92
2016-11-13T13:45:39.793Z,5.83
2016-11-13T13:46:53.959Z,5.88
2016-11-13T13:48:06.567Z,5.88
2016-11-13T13:49:19.641Z,5.83
2016-11-13T13:50:33.942Z,5.88
2016-11-13T13:51:49.967Z,5.96
2016-11-13T13:53:04.891Z,5.88
2016-11-13T13:54:19.200Z,5.77
2016-11-13T13:55:35.049Z,5.74
2016-11-13T13:56:49.835Z,5.81
2016-11-13T13:58:04.500Z,5.78
2016-11-13T13:59:17.502Z,5.78
2016-11-13T14:00:31.358Z,5.81
2016-11-13T14:01:45.985Z,5.78
2016-11-13T14:03:01.858Z,5.74
2016-11-13T14:04:16.079Z,5.78
2016-11-13T14:05:29.228Z,5.78
2016-11-13T14:06:44.054Z,5.81
2016-11-13T14:07:59.936Z,5.77
2016-11-13T14:09:15.695Z,5.81
2016-11-13T14:10:30.408Z,5.74
2016-11-13T14:11:44.941Z,5.77
2016-11-13T14:13:00.982Z,5.7
2016-11-13T14:14:13.933Z,5.67
2016-11-13T14:15:29.600Z,5.67
2016-11-13T14:16:44.025Z,5.7
2016-11-13T14:18:00.619Z,5.68
2016-11-13T14:19:16.457Z,5.71
2016-11-13T14:20:31.046Z,5.7
2016-11-13T14:21:45.203Z,5.7
2016-11-13T14:22:59.427Z,5.67
2016-11-13T14:24:12.527Z,5.59
2016-11-13T14:25:28.998Z,5.6
2016-11-13T14:26:41.729Z,5.53
2016-11-13T14:27:57.942Z,5.49
2016-11-13T14:29:14.157Z,5.45
2016-11-13T14:30:28.450Z,5.5
2016-11-13T14:31:41.612Z,5.4
2016-11-13T14:32:55.880Z,5.52
2016-11-13T14:34:10.037Z,5.49
2016-11-13T14:35:24.422Z,5.32
2016-11-13T14:36:40.107Z,5.37
2016-11-13T14:37:54.846Z,5.22
2016-11-13T14:39:07.605Z,5.23
2016-11-13T14:40:21.716Z,5.13
2016-11-13T14:41:36.385Z,5.19
2016-11-13T14:42:46.420Z,5.05
2016-11-13T14:44:01.198Z,5.04
2016-11-13T14:45:15.459Z,5.01
2016-11-13T14:46:32.260Z,4.92
2016-11-13T14:47:46.846Z,4.91
2016-11-13T14:49:03.547Z,4.84
2016-11-13T14:50:16.150Z,4.8
2016-11-13T14:51:32.192Z,4.75
2016-11-13T14:52:45.541Z,4.61
2016-11-13T14:53:57.034Z,4.57
2016-11-13T14:55:11.449Z,4.54
2016-11-13T14:56:27.573Z,4.4
2016-11-13T14:57:42.689Z,4.46
2016-11-13T14:58:55.615Z,4.4
2016-11-13T15:00:09.992Z,4.32
2016-11-13T15:01:26.193Z,4.25
2016-11-13T15:02:40.570Z,4.22
2016-11-13T15:03:56.603Z,4.19
2016-11-13T15:05:12.824Z,4.15
2016-11-13T15:06:27.391Z,4.12
2016-11-13T15:07:42.881Z,4.24
2016-11-13T15:08:57.262Z,4.04
2016-11-13T15:10:13.285Z,4.08
2016-11-13T15:11:27.495Z,4.07
2016-11-13T15:12:42.263Z,4.04
2016-11-13T15:13:58.091Z,4.01
2016-11-13T15:15:12.999Z,3.9
2016-11-13T15:16:28.725Z,3.75
2016-11-13T15:17:44.407Z,3.88
2016-11-13T15:18:57.429Z,3.79
2016-11-13T15:20:13.810Z,3.76
2016-11-13T15:21:28.346Z,3.78
2016-11-13T15:22:43.108Z,3.76
2016-11-13T15:23:58.859Z,3.72
2016-11-13T15:25:13.263Z,3.68
2016-11-13T15:26:29.093Z,3.67
2016-11-13T15:27:45.331Z,3.61
2016-11-13T15:29:01.179Z,3.47
2016-11-13T15:30:15.716Z,3.52
2016-11-13T15:31:29.727Z,3.65
2016-11-13T15:32:44.199Z,3.52
2016-11-13T15:33:58.599Z,3.47
2016-11-13T15:35:13.042Z,3.46
2016-11-13T15:36:27.467Z,3.42
2016-11-13T15:37:42.244Z,3.28
2016-11-13T15:38:58.869Z,3.33
2016-11-13T15:40:12.364Z,3.28
2016-11-13T15:41:26.634Z,3.31
2016-11-13T15:42:42.855Z,3.24
2016-11-13T15:43:58.375Z,3.21
2016-11-13T15:45:13.908Z,3.15
2016-11-13T15:46:30.020Z,3.1
2016-11-13T15:47:44.849Z,3.07
2016-11-13T15:48:58.027Z,3.03
2016-11-13T15:50:13.035Z,2.97
2016-11-13T15:51:27.932Z,2.94
2016-11-13T15:52:42.017Z,2.92
2016-11-13T15:53:58.216Z,2.89
2016-11-13T15:55:11.253Z,2.85
2016-11-13T15:56:24.597Z,2.84
2016-11-13T15:57:40.460Z,2.91
2016-11-13T15:58:57.002Z,2.77
2016-11-13T16:00:11.177Z,2.67
2016-11-13T16:01:26.645Z,2.7
2016-11-13T16:02:39.919Z,2.74
2016-11-13T16:03:54.935Z,2.71
2016-11-13T16:05:10.612Z,2.67
2016-11-13T16:06:26.159Z,2.61
2016-11-13T16:07:40.953Z,2.49
2016-11-13T16:08:55.651Z,2.51
2016-11-13T16:10:09.256Z,2.51
2016-11-13T16:11:25.673Z,2.45
2016-11-13T16:12:38.997Z,2.38
2016-11-13T16:13:54.888Z,2.35
2016-11-13T16:15:06.623Z,2.26
2016-11-13T16:16:22.466Z,2.17
2016-11-13T16:17:38.815Z,2.16
2016-11-13T16:18:53.291Z,2.16
2016-11-13T16:20:08.469Z,2.22
2016-11-13T16:21:23.767Z,2.1
2016-11-13T16:22:40.136Z,2.2
2016-11-13T16:23:54.187Z,2.13
2016-11-13T16:25:10.715Z,2.13
2016-11-13T16:26:24.786Z,2.12
2016-11-13T16:27:40.823Z,2.13
2016-11-13T16:28:56.961Z,2.1
2016-11-13T16:30:13.532Z,1.97
2016-11-13T16:31:30.309Z,2.01
2016-11-13T16:32:46.616Z,1.91
2016-11-13T16:33:59.161Z,1.99
2016-11-13T16:35:13.593Z,1.89
2016-11-13T16:36:30.069Z,1.91
2016-11-13T16:37:44.076Z,1.79